Time;durP1;ratioP1;P1;durP2;ratioP2;P2;SDS_P1;SDS_P2;PMS_P1;PMS_P2;Temp;Humidity;BMP_temperature;BMP_pressure;BME280_temperature;BME280_humidity;BME280_pressure;Samples;Min_cycle;Max_cycle;Signal;HPM_P1;HPM_P2
2021/01/13 00:02:07;;;;;;;3.13;0.50;;;2.00;99.90;;;;;;5022095;28;20183;-45
2021/01/13 00:04:33;;;;;;;3.27;0.73;;;2.00;99.90;;;;;;5021373;28;20597;-45
2021/01/13 00:06:59;;;;;;;5.83;0.67;;;2.00;99.90;;;;;;5009866;28;20202;-46
2021/01/13 00:09:24;;;;;;;7.17;0.80;;;2.00;99.90;;;;;;5012448;28;20253;-50
2021/01/13 00:11:57;;;;;;;5.47;1.20;;;2.10;99.90;;;;;;5020559;28;20209;-45
2021/01/13 00:14:26;;;;;;;3.93;1.00;;;2.10;99.90;;;;;;5019644;28;20708;-47
2021/01/13 00:16:53;;;;;;;3.00;0.70;;;2.10;99.90;;;;;;5013087;28;20200;-45
2021/01/13 00:19:19;;;;;;;1.97;0.57;;;2.00;99.90;;;;;;5020829;28;20204;-50
2021/01/13 00:21:55;;;;;;;5.07;0.70;;;1.90;99.90;;;;;;5022128;28;20163;-46
2021/01/13 00:24:22;;;;;;;2.90;0.70;;;1.90;99.90;;;;;;5011869;28;20208;-48
2021/01/13 00:26:48;;;;;;;3.17;0.50;;;1.90;99.90;;;;;;5018999;28;20258;-46
2021/01/13 00:29:15;;;;;;;3.80;1.47;;;1.90;99.90;;;;;;5026221;28;20265;-50
2021/01/13 00:31:41;;;;;;;2.93;0.60;;;1.90;99.90;;;;;;5044053;28;20198;-45
2021/01/13 00:34:08;;;;;;;1.73;0.40;;;1.90;99.90;;;;;;5047163;28;20182;-46
2021/01/13 00:36:33;;;;;;;3.60;0.67;;;1.90;99.90;;;;;;5042619;28;20174;-44
2021/01/13 00:38:59;;;;;;;4.20;0.50;;;1.80;99.90;;;;;;5024621;28;20217;-45
2021/01/13 00:41:24;;;;;;;3.87;0.40;;;1.80;99.90;;;;;;5013874;28;20620;-50
2021/01/13 00:43:52;;;;;;;3.70;0.83;;;1.80;99.90;;;;;;5020044;28;20662;-48
2021/01/13 00:46:18;;;;;;;2.73;0.60;;;1.80;99.90;;;;;;5022919;28;20172;-50
2021/01/13 00:48:44;;;;;;;3.53;1.07;;;1.70;99.90;;;;;;5023113;28;20891;-46
2021/01/13 00:51:09;;;;;;;5.27;0.70;;;1.70;99.90;;;;;;5028789;28;20180;-46
2021/01/13 00:53:35;;;;;;;5.97;0.70;;;1.70;99.90;;;;;;5021858;28;20199;-48
2021/01/13 00:56:02;;;;;;;1.93;0.60;;;1.70;99.90;;;;;;5014769;28;20266;-48
2021/01/13 00:58:27;;;;;;;1.50;0.43;;;1.70;99.90;;;;;;5014980;28;20234;-49
2021/01/13 01:00:53;;;;;;;2.67;0.77;;;1.70;99.90;;;;;;5019149;28;20285;-46
2021/01/13 01:03:19;;;;;;;2.10;0.63;;;1.70;99.90;;;;;;5022084;28;20213;-51
2021/01/13 01:05:45;;;;;;;7.33;0.70;;;1.70;99.90;;;;;;5025122;28;20194;-48
2021/01/13 01:08:10;;;;;;;3.23;0.80;;;1.70;99.90;;;;;;5025254;28;20556;-49
2021/01/13 01:10:38;;;;;;;3.07;0.70;;;1.70;99.90;;;;;;4999259;28;20184;-46
2021/01/13 01:13:04;;;;;;;6.40;0.57;;;1.70;99.90;;;;;;5014600;28;20586;-50
2021/01/13 01:15:30;;;;;;;9.00;0.80;;;1.70;99.90;;;;;;5002701;28;20177;-49
2021/01/13 01:17:55;;;;;;;2.20;0.67;;;1.70;99.90;;;;;;5005969;28;20281;-46
2021/01/13 01:20:21;;;;;;;2.03;0.70;;;1.70;99.90;;;;;;5004010;28;20181;-48
2021/01/13 01:22:58;;;;;;;5.60;0.63;;;1.70;99.90;;;;;;5008791;28;20191;-47
2021/01/13 01:25:25;;;;;;;2.97;0.67;;;1.70;99.90;;;;;;5006314;28;20655;-49
2021/01/13 01:27:53;;;;;;;3.07;0.80;;;1.60;99.90;;;;;;5016966;28;20180;-49
2021/01/13 01:30:19;;;;;;;3.37;1.10;;;1.60;99.90;;;;;;5024354;28;20539;-49
2021/01/13 01:32:45;;;;;;;2.27;0.63;;;1.60;99.90;;;;;;5022207;28;20187;-49
2021/01/13 01:35:14;;;;;;;6.50;0.83;;;1.60;99.90;;;;;;5017753;28;20182;-50
2021/01/13 01:37:41;;;;;;;3.97;1.10;;;1.60;99.90;;;;;;5022700;28;20164;-49
2021/01/13 01:40:09;;;;;;;6.27;1.20;;;1.60;99.90;;;;;;5025964;28;20225;-46
2021/01/13 01:42:44;;;;;;;2.03;0.80;;;1.60;99.90;;;;;;5006437;28;20212;-47
2021/01/13 01:45:11;;;;;;;4.63;1.10;;;1.60;99.90;;;;;;5022576;28;20190;-45
2021/01/13 01:47:55;;;;;;;6.57;0.93;;;1.70;99.90;;;;;;5020421;28;20186;-48
2021/01/13 01:50:22;;;;;;;7.63;0.93;;;1.60;99.90;;;;;;5023531;28;20293;-47
2021/01/13 01:52:58;;;;;;;4.90;1.33;;;1.60;99.90;;;;;;5024067;28;20189;-49
2021/01/13 01:55:28;;;;;;;4.67;0.80;;;1.70;99.90;;;;;;5023332;28;20589;-46
2021/01/13 01:57:57;;;;;;;6.90;0.87;;;1.70;99.90;;;;;;5013672;28;20191;-45
2021/01/13 02:00:30;;;;;;;7.20;1.20;;;1.70;99.90;;;;;;5014269;28;20178;-45
2021/01/13 02:03:06;;;;;;;3.87;0.90;;;1.70;99.90;;;;;;5025095;28;20681;-45
2021/01/13 02:05:33;;;;;;;6.10;1.13;;;1.70;99.90;;;;;;5013347;28;20178;-48
2021/01/13 02:08:01;;;;;;;8.57;1.30;;;1.70;99.90;;;;;;5025566;28;20735;-45
2021/01/13 02:10:27;;;;;;;3.80;1.10;;;1.80;99.90;;;;;;5023702;28;20673;-45
2021/01/13 02:12:53;;;;;;;7.23;0.90;;;1.70;99.90;;;;;;5006757;28;20210;-48
2021/01/13 02:15:19;;;;;;;5.10;0.93;;;1.70;99.90;;;;;;5016517;28;20201;-45
2021/01/13 02:17:54;;;;;;;6.90;1.53;;;1.80;99.90;;;;;;5013889;28;20294;-45
2021/01/13 02:20:25;;;;;;;4.87;0.80;;;1.80;99.90;;;;;;5012439;28;20648;-48
2021/01/13 02:23:02;;;;;;;5.20;0.80;;;1.80;99.90;;;;;;5016306;28;20225;-45
2021/01/13 02:26:16;;;;;;;3.07;0.70;;;1.80;99.90;;;;;;5021120;28;20646;-51
2021/01/13 02:29:10;;;;;;;3.67;0.63;;;1.80;99.90;;;;;;5004981;28;20191;-45
2021/01/13 02:31:38;;;;;;;7.80;0.87;;;1.80;99.90;;;;;;5010039;28;20191;-49
2021/01/13 02:34:17;;;;;;;4.63;0.80;;;1.90;99.90;;;;;;5020957;28;20178;-45
2021/01/13 02:37:08;;;;;;;4.77;1.00;;;1.90;99.90;;;;;;5021913;28;20412;-45
2021/01/13 02:39:35;;;;;;;2.83;0.50;;;1.90;99.90;;;;;;5020403;28;20230;-47
2021/01/13 02:42:01;;;;;;;6.67;0.90;;;1.80;99.90;;;;;;5023930;28;20659;-46
2021/01/13 02:44:30;;;;;;;5.07;0.70;;;1.80;99.90;;;;;;5009307;28;20224;-52
2021/01/13 02:46:56;;;;;;;6.20;0.70;;;1.80;99.90;;;;;;5015937;28;20180;-50
2021/01/13 02:49:40;;;;;;;8.47;1.00;;;1.90;99.90;;;;;;5022490;28;20183;-48
2021/01/13 02:52:20;;;;;;;10.30;1.10;;;1.90;99.90;;;;;;5004610;28;20269;-46
2021/01/13 02:54:54;;;;;;;8.60;1.67;;;1.90;99.90;;;;;;5002173;28;20940;-48
2021/01/13 02:57:25;;;;;;;4.30;1.13;;;2.00;99.90;;;;;;5003134;28;20215;-48
2021/01/13 02:59:55;;;;;;;5.20;0.90;;;2.00;99.90;;;;;;4996714;28;20208;-45
2021/01/13 03:02:34;;;;;;;9.83;0.93;;;2.00;99.90;;;;;;5012803;28;20195;-45
2021/01/13 03:04:59;;;;;;;6.53;1.00;;;2.00;99.90;;;;;;5015230;28;20190;-48
2021/01/13 03:07:26;;;;;;;10.23;1.20;;;2.00;99.90;;;;;;5013538;28;20560;-48
2021/01/13 03:09:57;;;;;;;3.43;0.73;;;2.00;99.90;;;;;;5021996;28;20210;-45
2021/01/13 03:12:26;;;;;;;5.47;1.07;;;2.00;99.90;;;;;;5013896;28;20739;-51
2021/01/13 03:14:57;;;;;;;3.00;0.70;;;2.00;99.90;;;;;;5023017;28;20203;-48
2021/01/13 03:17:49;;;;;;;3.90;0.60;;;2.00;99.90;;;;;;5004026;28;20249;-47
2021/01/13 03:20:23;;;;;;;5.27;0.80;;;2.00;99.90;;;;;;5020531;28;20184;-49
2021/01/13 03:22:55;;;;;;;7.43;1.00;;;2.10;99.90;;;;;;5022034;28;20279;-47
2021/01/13 03:25:24;;;;;;;8.50;1.40;;;2.10;99.90;;;;;;5022330;28;20181;-45
2021/01/13 03:27:51;;;;;;;10.77;1.10;;;2.10;99.90;;;;;;5022327;28;20939;-48
2021/01/13 03:30:19;;;;;;;6.23;0.90;;;2.10;99.90;;;;;;5019083;28;20218;-51
2021/01/13 03:33:07;;;;;;;6.77;1.27;;;2.10;99.90;;;;;;5008517;28;20202;-46
2021/01/13 03:35:40;;;;;;;5.90;1.10;;;2.10;99.90;;;;;;5019085;28;20172;-49
2021/01/13 03:38:12;;;;;;;10.40;1.47;;;2.10;99.90;;;;;;5023663;28;20253;-50
2021/01/13 03:40:38;;;;;;;6.00;1.10;;;2.10;99.90;;;;;;5019541;28;20160;-46
2021/01/13 03:43:15;;;;;;;11.23;1.10;;;2.00;99.90;;;;;;5023822;28;20192;-46
2021/01/13 03:45:41;;;;;;;2.43;0.97;;;2.00;99.90;;;;;;5020083;28;20160;-46
2021/01/13 03:48:27;;;;;;;8.70;1.00;;;2.00;99.90;;;;;;5007296;28;20199;-50
2021/01/13 03:50:55;;;;;;;7.50;1.00;;;2.10;99.90;;;;;;5016392;28;20189;-47
2021/01/13 03:53:21;;;;;;;6.23;1.57;;;2.10;99.90;;;;;;5021583;28;20195;-48
2021/01/13 03:55:49;;;;;;;6.17;1.10;;;2.10;99.90;;;;;;5021018;28;20163;-45
2021/01/13 03:58:33;;;;;;;9.60;1.30;;;2.10;99.90;;;;;;5022858;28;20256;-49
2021/01/13 04:01:02;;;;;;;5.27;1.40;;;2.10;99.90;;;;;;5016623;28;20266;-47
2021/01/13 04:03:35;;;;;;;4.47;0.80;;;2.10;99.90;;;;;;5007405;28;20239;-47
2021/01/13 04:06:04;;;;;;;3.27;1.10;;;2.00;99.90;;;;;;5014938;28;20645;-47
2021/01/13 04:08:37;;;;;;;6.47;1.50;;;2.00;99.90;;;;;;5019716;28;20171;-51
2021/01/13 04:11:11;;;;;;;8.23;0.80;;;1.90;99.90;;;;;;5023301;28;20584;-47
2021/01/13 04:13:36;;;;;;;2.67;1.07;;;1.80;99.90;;;;;;5019033;28;20195;-47
2021/01/13 04:16:03;;;;;;;3.07;1.03;;;1.70;99.90;;;;;;5023349;28;20228;-47
2021/01/13 04:18:29;;;;;;;6.17;0.97;;;1.70;99.90;;;;;;5010895;28;20248;-46
2021/01/13 04:20:56;;;;;;;2.30;0.63;;;1.70;99.90;;;;;;5014114;28;20211;-46
2021/01/13 04:23:22;;;;;;;9.07;0.60;;;1.70;99.90;;;;;;5019258;28;20678;-47
2021/01/13 04:25:48;;;;;;;1.37;0.63;;;1.70;99.90;;;;;;5021094;28;20304;-46
2021/01/13 04:28:14;;;;;;;2.67;0.60;;;1.80;99.90;;;;;;5015949;28;20753;-47
2021/01/13 04:30:40;;;;;;;2.87;1.00;;;1.80;99.90;;;;;;5009967;28;20242;-46
2021/01/13 04:33:06;;;;;;;2.17;0.67;;;1.80;99.90;;;;;;5006618;28;20215;-46
2021/01/13 04:35:32;;;;;;;0.63;0.63;;;1.80;99.90;;;;;;4998384;28;20731;-46
2021/01/13 04:37:58;;;;;;;1.33;0.67;;;1.80;99.90;;;;;;5014237;28;20259;-46
2021/01/13 04:40:23;;;;;;;2.77;0.63;;;1.80;99.90;;;;;;5020926;28;20182;-49
2021/01/13 04:43:12;;;;;;;2.53;0.80;;;1.80;99.90;;;;;;5019714;28;20191;-48
2021/01/13 04:45:43;;;;;;;5.03;0.77;;;1.70;99.90;;;;;;5010722;28;20806;-50
2021/01/13 04:48:19;;;;;;;1.63;0.70;;;1.70;99.90;;;;;;5022636;28;20198;-46
2021/01/13 04:50:50;;;;;;;1.53;0.70;;;1.60;99.90;;;;;;5008738;28;20289;-46
2021/01/13 04:53:17;;;;;;;5.80;1.00;;;1.60;99.90;;;;;;5013815;28;20206;-51
2021/01/13 04:55:54;;;;;;;3.63;1.20;;;1.60;99.90;;;;;;5019781;28;20898;-46
2021/01/13 04:58:19;;;;;;;2.53;0.97;;;1.50;99.90;;;;;;5021500;28;20321;-52
2021/01/13 05:00:57;;;;;;;2.60;1.10;;;1.50;99.90;;;;;;5012970;28;20318;-48
2021/01/13 05:03:49;;;;;;;1.60;1.00;;;1.50;99.90;;;;;;5019532;28;20256;-50
2021/01/13 05:06:36;;;;;;;3.17;1.00;;;1.50;99.90;;;;;;5003276;28;20258;-49
2021/01/13 05:09:07;;;;;;;3.90;0.93;;;1.50;99.90;;;;;;5017848;28;20244;-46
2021/01/13 05:11:39;;;;;;;1.60;0.90;;;1.50;99.90;;;;;;5022530;28;20217;-47
2021/01/13 05:14:06;;;;;;;1.60;1.10;;;1.50;99.90;;;;;;5018974;28;20188;-49
2021/01/13 05:16:48;;;;;;;7.37;1.93;;;1.60;99.90;;;;;;5021772;28;20171;-48
2021/01/13 05:19:32;;;;;;;4.57;1.00;;;1.50;99.90;;;;;;5013264;28;20251;-50
2021/01/13 05:21:58;;;;;;;3.87;1.20;;;1.60;99.90;;;;;;5014680;28;20214;-49
2021/01/13 05:24:26;;;;;;;2.73;1.10;;;1.60;99.90;;;;;;5014448;28;20187;-47
2021/01/13 05:27:00;;;;;;;3.40;1.67;;;1.60;99.90;;;;;;5025947;28;20176;-50
2021/01/13 05:29:38;;;;;;;3.23;1.53;;;1.60;99.90;;;;;;5022236;28;20598;-47
2021/01/13 05:32:06;;;;;;;6.60;1.50;;;1.60;99.90;;;;;;5025904;28;20581;-48
2021/01/13 05:34:36;;;;;;;4.37;1.17;;;1.60;99.90;;;;;;5022098;28;20175;-48
2021/01/13 05:37:02;;;;;;;5.33;1.83;;;1.60;99.90;;;;;;5026112;28;20183;-46
2021/01/13 05:39:30;;;;;;;5.53;1.70;;;1.60;99.90;;;;;;5006833;28;20214;-46
2021/01/13 05:42:00;;;;;;;6.83;1.43;;;1.60;99.90;;;;;;5020370;28;20321;-47
2021/01/13 05:44:29;;;;;;;6.10;1.70;;;1.60;99.90;;;;;;5022082;28;20179;-48
2021/01/13 05:47:01;;;;;;;13.90;2.70;;;1.60;99.90;;;;;;5026017;28;20220;-50
2021/01/13 05:49:27;;;;;;;8.70;2.40;;;1.60;99.90;;;;;;5013319;28;20628;-51
2021/01/13 05:51:52;;;;;;;10.83;2.23;;;1.70;99.90;;;;;;5025910;28;20194;-48
2021/01/13 05:54:18;;;;;;;13.03;2.53;;;1.70;99.90;;;;;;5010309;28;20245;-47
2021/01/13 05:56:44;;;;;;;4.70;1.10;;;1.70;99.90;;;;;;5016684;28;20853;-52
2021/01/13 05:59:10;;;;;;;7.80;1.73;;;1.70;99.90;;;;;;5015414;28;20680;-48
2021/01/13 06:02:01;;;;;;;7.60;1.93;;;1.80;99.90;;;;;;5002559;28;20190;-48
2021/01/13 06:04:27;;;;;;;5.87;1.73;;;1.80;99.90;;;;;;5001829;28;20175;-50
2021/01/13 06:06:57;;;;;;;10.37;2.50;;;1.80;99.90;;;;;;5008440;28;20671;-49
2021/01/13 06:09:24;;;;;;;7.73;2.10;;;1.90;99.90;;;;;;5002916;28;20203;-48
2021/01/13 06:11:53;;;;;;;8.53;2.43;;;1.80;99.90;;;;;;5019313;28;20180;-50
2021/01/13 06:14:28;;;;;;;6.97;1.90;;;1.90;99.90;;;;;;5024632;28;20254;-47
2021/01/13 06:16:54;;;;;;;6.97;1.90;;;1.90;99.90;;;;;;5021843;28;20185;-52
2021/01/13 06:19:21;;;;;;;7.47;1.80;;;1.90;99.90;;;;;;5025191;28;20207;-46
2021/01/13 06:21:47;;;;;;;13.90;2.27;;;1.80;99.90;;;;;;5022491;28;20703;-50
2021/01/13 06:24:14;;;;;;;5.83;2.00;;;1.90;99.90;;;;;;5012475;28;20378;-48
2021/01/13 06:27:16;;;;;;;6.13;2.13;;;1.90;99.90;;;;;;5015741;28;20738;-48
2021/01/13 06:29:49;;;;;;;10.33;2.60;;;1.90;99.90;;;;;;5007553;28;20202;-49
2021/01/13 06:32:33;;;;;;;11.20;2.97;;;1.80;99.90;;;;;;5014862;28;20635;-51
2021/01/13 06:35:26;;;;;;;2.97;1.97;;;1.90;99.90;;;;;;5024652;28;20172;-47
2021/01/13 06:37:55;;;;;;;6.90;2.30;;;1.90;99.90;;;;;;5013322;28;20217;-50
2021/01/13 06:40:21;;;;;;;4.57;1.93;;;1.90;99.90;;;;;;5003162;28;20193;-49
2021/01/13 06:42:47;;;;;;;9.90;2.50;;;1.90;99.90;;;;;;5008068;28;20204;-48
2021/01/13 06:45:14;;;;;;;6.77;2.20;;;1.90;99.90;;;;;;5019738;28;20297;-48
2021/01/13 06:47:56;;;;;;;6.07;1.93;;;1.90;99.90;;;;;;5023086;28;20269;-47
2021/01/13 06:50:39;;;;;;;5.97;1.57;;;2.00;99.90;;;;;;5022525;28;20194;-48
2021/01/13 06:53:09;;;;;;;6.00;1.80;;;2.00;99.90;;;;;;5021585;28;20190;-48
2021/01/13 06:55:36;;;;;;;3.47;2.10;;;2.00;99.90;;;;;;5008459;28;20683;-46
2021/01/13 06:58:13;;;;;;;8.53;2.73;;;2.00;99.90;;;;;;5005263;28;20242;-46
2021/01/13 07:00:40;;;;;;;6.10;2.27;;;2.00;99.90;;;;;;5006433;28;20265;-49
2021/01/13 07:03:25;;;;;;;7.97;2.20;;;2.10;99.90;;;;;;5021298;28;20198;-46
2021/01/13 07:05:51;;;;;;;6.27;1.93;;;2.10;99.90;;;;;;5020596;28;20679;-48
2021/01/13 07:08:17;;;;;;;3.97;1.97;;;2.10;99.90;;;;;;5023507;28;20202;-47
2021/01/13 07:10:43;;;;;;;5.63;1.80;;;2.00;99.90;;;;;;5006599;28;20175;-51
2021/01/13 07:13:09;;;;;;;8.07;2.13;;;2.00;99.90;;;;;;5008397;28;20242;-49
2021/01/13 07:15:38;;;;;;;5.87;2.30;;;2.00;99.90;;;;;;5004119;28;20271;-49
2021/01/13 07:18:03;;;;;;;7.53;2.17;;;2.00;99.90;;;;;;5011244;28;20214;-46
2021/01/13 07:20:30;;;;;;;6.37;2.13;;;2.00;99.90;;;;;;5011873;28;20874;-46
2021/01/13 07:22:57;;;;;;;4.83;1.70;;;2.00;99.90;;;;;;5018848;28;20727;-48
2021/01/13 07:25:23;;;;;;;8.70;2.27;;;2.00;99.90;;;;;;5011774;28;20201;-51
2021/01/13 07:27:50;;;;;;;5.20;1.87;;;1.90;99.90;;;;;;5006093;28;20199;-47
2021/01/13 07:30:18;;;;;;;5.20;2.40;;;1.90;99.90;;;;;;5007971;28;20652;-50
2021/01/13 07:32:57;;;;;;;5.43;1.80;;;1.90;99.90;;;;;;5011706;28;20304;-47
2021/01/13 07:35:29;;;;;;;3.90;1.67;;;1.90;99.90;;;;;;5019800;28;20180;-51
2021/01/13 07:37:59;;;;;;;4.50;1.70;;;1.90;99.90;;;;;;5018704;28;20686;-48
2021/01/13 07:40:27;;;;;;;6.17;1.93;;;1.90;99.90;;;;;;5019545;28;20930;-46
2021/01/13 07:43:03;;;;;;;4.57;1.93;;;2.00;99.90;;;;;;5005499;28;20715;-48
2021/01/13 07:45:30;;;;;;;9.03;1.90;;;2.00;99.90;;;;;;5014499;28;20214;-46
2021/01/13 07:48:14;;;;;;;7.43;2.07;;;2.10;99.90;;;;;;5019686;28;20214;-47
2021/01/13 07:50:42;;;;;;;9.10;2.40;;;2.10;99.90;;;;;;5010049;28;20168;-47
2021/01/13 07:53:25;;;;;;;5.00;2.03;;;2.10;99.90;;;;;;5011009;28;20210;-47
2021/01/13 07:56:04;;;;;;;4.93;1.53;;;2.10;99.90;;;;;;5016945;28;20171;-48
2021/01/13 07:58:32;;;;;;;7.30;2.73;;;2.20;99.90;;;;;;5005073;28;20200;-46
2021/01/13 08:00:58;;;;;;;5.40;1.90;;;2.20;99.90;;;;;;5018234;28;20191;-46
2021/01/13 08:03:55;;;;;;;5.20;1.77;;;2.20;99.90;;;;;;5010657;28;20211;-47
2021/01/13 08:06:28;;;;;;;3.77;1.50;;;2.20;99.90;;;;;;5023316;28;20187;-51
2021/01/13 08:09:02;;;;;;;3.63;1.43;;;2.20;99.90;;;;;;5014399;28;20251;-49
2021/01/13 08:11:49;;;;;;;5.37;1.63;;;2.10;99.90;;;;;;5019492;28;20759;-47
2021/01/13 08:14:52;;;;;;;4.63;1.40;;;2.10;99.90;;;;;;5000408;28;20557;-52
2021/01/13 08:17:37;;;;;;;6.60;2.37;;;2.10;99.90;;;;;;5015776;28;20651;-50
2021/01/13 08:20:26;;;;;;;5.53;1.50;;;2.20;99.90;;;;;;5013916;28;20214;-48
2021/01/13 08:23:09;;;;;;;10.37;2.50;;;2.20;99.90;;;;;;5020759;28;20196;-46
2021/01/13 08:25:37;;;;;;;6.97;1.90;;;2.20;99.90;;;;;;5011213;28;20199;-49
2021/01/13 08:28:03;;;;;;;8.60;1.57;;;2.20;99.90;;;;;;5016519;28;20190;-47
2021/01/13 08:30:30;;;;;;;11.93;1.77;;;2.20;99.90;;;;;;5002382;28;20198;-48
2021/01/13 08:33:00;;;;;;;8.93;1.70;;;2.20;99.90;;;;;;5015809;28;20208;-51
2021/01/13 08:35:33;;;;;;;4.27;1.37;;;2.20;99.90;;;;;;5008038;28;20199;-47
2021/01/13 08:38:10;;;;;;;4.10;1.60;;;2.20;99.90;;;;;;5012282;28;20202;-47
2021/01/13 08:40:39;;;;;;;7.43;2.30;;;2.20;99.90;;;;;;5010469;28;20191;-51
2021/01/13 08:43:13;;;;;;;7.07;1.70;;;2.20;99.90;;;;;;5020229;28;20199;-47
2021/01/13 08:45:42;;;;;;;4.97;1.67;;;2.20;99.90;;;;;;5012996;28;20181;-48
2021/01/13 08:48:15;;;;;;;6.73;1.37;;;2.30;99.90;;;;;;5017368;28;20194;-48
2021/01/13 08:50:42;;;;;;;4.93;1.43;;;2.30;99.90;;;;;;5016990;28;21847;-46
2021/01/13 08:53:21;;;;;;;7.97;2.00;;;2.30;99.90;;;;;;5021013;28;20218;-51
2021/01/13 08:55:52;;;;;;;5.43;1.67;;;2.30;99.90;;;;;;5015914;28;20237;-47
2021/01/13 08:58:28;;;;;;;5.60;1.57;;;2.30;99.90;;;;;;5011687;28;20212;-53
2021/01/13 09:01:03;;;;;;;4.67;1.50;;;2.30;99.90;;;;;;5008002;28;20191;-48
2021/01/13 09:03:34;;;;;;;9.00;1.93;;;2.30;99.90;;;;;;5014888;28;20213;-48
2021/01/13 09:06:20;;;;;;;4.67;1.20;;;2.30;99.90;;;;;;5022670;28;20241;-47
2021/01/13 09:08:51;;;;;;;4.40;1.27;;;2.30;99.90;;;;;;5012821;28;20191;-52
2021/01/13 09:11:36;;;;;;;2.47;1.30;;;2.30;99.90;;;;;;5020880;28;20529;-53
2021/01/13 09:14:22;;;;;;;5.40;1.20;;;2.40;99.90;;;;;;5013198;28;20186;-49
2021/01/13 09:16:55;;;;;;;5.67;1.10;;;2.40;99.90;;;;;;5024835;28;20188;-47
2021/01/13 09:19:30;;;;;;;2.77;1.27;;;2.50;99.90;;;;;;5018180;28;20746;-50
2021/01/13 09:22:00;;;;;;;9.47;1.90;;;2.50;99.90;;;;;;5017961;28;20221;-51
2021/01/13 09:24:35;;;;;;;5.23;1.60;;;2.60;99.90;;;;;;5009579;28;20194;-48
2021/01/13 09:27:04;;;;;;;6.83;2.83;;;2.60;99.90;;;;;;5020418;28;20195;-51
2021/01/13 09:29:47;;;;;;;7.00;1.90;;;2.60;99.90;;;;;;5003295;28;20181;-49
2021/01/13 09:32:15;;;;;;;13.43;3.27;;;2.60;99.90;;;;;;4997835;28;20223;-54
2021/01/13 09:34:42;;;;;;;5.93;1.80;;;2.60;99.90;;;;;;5020685;28;20934;-48
2021/01/13 09:37:08;;;;;;;9.93;2.20;;;2.70;99.90;;;;;;5020767;28;20214;-53
2021/01/13 09:39:38;;;;;;;6.40;1.90;;;2.70;99.90;;;;;;5014743;28;20204;-47
2021/01/13 09:42:08;;;;;;;8.80;1.83;;;2.70;99.90;;;;;;5013465;28;20196;-49
2021/01/13 09:44:36;;;;;;;9.73;2.07;;;2.80;99.90;;;;;;5007001;28;20192;-47
2021/01/13 09:47:24;;;;;;;9.90;1.87;;;2.80;99.90;;;;;;5003427;28;20204;-48
2021/01/13 09:49:53;;;;;;;6.90;1.30;;;2.90;99.90;;;;;;5018648;28;20699;-53
2021/01/13 09:52:19;;;;;;;10.57;1.40;;;2.90;99.90;;;;;;5008387;28;20209;-50
2021/01/13 09:54:50;;;;;;;1.90;0.73;;;3.00;99.90;;;;;;5017946;28;20191;-52
2021/01/13 09:57:16;;;;;;;9.30;1.80;;;3.10;99.90;;;;;;5006095;28;20192;-50
2021/01/13 10:00:08;;;;;;;7.23;1.17;;;3.30;99.90;;;;;;5007149;28;20211;-46
2021/01/13 10:02:34;;;;;;;6.07;1.27;;;3.40;99.90;;;;;;5003559;28;20753;-50
2021/01/13 10:04:59;;;;;;;12.33;2.67;;;3.50;99.90;;;;;;5019506;28;20184;-48
2021/01/13 10:07:35;;;;;;;7.97;1.90;;;3.60;99.90;;;;;;5007543;28;20901;-46
2021/01/13 10:10:06;;;;;;;8.80;1.70;;;3.70;99.90;;;;;;5015623;28;20194;-48
2021/01/13 10:12:45;;;;;;;3.67;1.50;;;3.70;99.90;;;;;;5009089;28;20931;-49
2021/01/13 10:15:12;;;;;;;5.17;1.20;;;3.60;99.90;;;;;;5011970;28;20220;-49
2021/01/13 10:17:39;;;;;;;7.83;1.67;;;3.60;99.90;;;;;;5000615;28;20282;-48
2021/01/13 10:20:17;;;;;;;6.63;1.37;;;3.60;99.90;;;;;;5012998;28;20595;-50
2021/01/13 10:22:44;;;;;;;15.83;1.63;;;3.60;99.90;;;;;;5012794;28;20317;-48
2021/01/13 10:25:11;;;;;;;9.97;1.37;;;3.60;99.90;;;;;;5018913;28;20267;-49
2021/01/13 10:27:43;;;;;;;9.80;1.23;;;3.50;99.90;;;;;;5011344;28;20877;-48
2021/01/13 10:30:10;;;;;;;7.03;1.67;;;3.50;99.90;;;;;;5013919;28;20215;-53
2021/01/13 10:32:55;;;;;;;9.97;1.70;;;3.50;99.90;;;;;;5009975;28;20200;-51
2021/01/13 10:35:24;;;;;;;6.47;1.57;;;3.30;99.90;;;;;;5020165;28;20625;-51
2021/01/13 10:37:55;;;;;;;15.90;2.50;;;3.30;99.90;;;;;;5013142;28;20188;-47
2021/01/13 10:40:21;;;;;;;12.03;2.30;;;3.20;99.90;;;;;;5013584;28;20222;-50
2021/01/13 10:42:52;;;;;;;6.87;1.97;;;3.20;99.90;;;;;;5018981;28;20231;-47
2021/01/13 10:45:19;;;;;;;8.37;2.07;;;3.20;99.90;;;;;;5010214;28;20187;-53
2021/01/13 10:47:53;;;;;;;13.37;1.33;;;3.20;99.90;;;;;;5009083;28;20680;-50
2021/01/13 10:50:21;;;;;;;10.40;2.10;;;3.20;99.90;;;;;;5012233;28;20685;-52
2021/01/13 10:52:55;;;;;;;9.10;1.67;;;3.20;99.90;;;;;;5010755;28;20209;-47
2021/01/13 10:55:23;;;;;;;10.40;2.03;;;3.20;99.90;;;;;;5008921;28;20191;-52
2021/01/13 10:57:52;;;;;;;7.47;1.67;;;3.30;99.90;;;;;;5013361;28;20203;-48
2021/01/13 11:00:21;;;;;;;7.40;1.67;;;3.30;99.90;;;;;;5018247;28;20627;-49
2021/01/13 11:02:55;;;;;;;7.40;1.50;;;3.40;99.90;;;;;;5009727;28;20223;-48
2021/01/13 11:05:22;;;;;;;7.40;1.50;;;3.40;99.90;;;;;;5010980;28;20188;-51
2021/01/13 11:07:51;;;;;;;5.13;1.20;;;3.40;99.90;;;;;;5024300;28;20179;-47
2021/01/13 11:10:18;;;;;;;12.70;1.87;;;3.50;99.90;;;;;;5014048;28;20202;-51
2021/01/13 11:12:43;;;;;;;10.07;1.60;;;3.60;99.90;;;;;;5016708;28;20214;-47
2021/01/13 11:15:10;;;;;;;9.47;1.50;;;3.70;99.90;;;;;;5013210;28;20537;-50
2021/01/13 11:17:37;;;;;;;3.30;1.57;;;3.70;99.90;;;;;;4998240;28;24077;-49
2021/01/13 11:20:06;;;;;;;10.63;1.30;;;3.80;99.90;;;;;;5015666;28;20196;-47
2021/01/13 11:22:45;;;;;;;11.80;2.03;;;3.80;99.90;;;;;;5001789;28;20935;-47
2021/01/13 11:25:27;;;;;;;11.50;2.10;;;3.90;99.90;;;;;;5005890;28;20188;-49
2021/01/13 11:28:07;;;;;;;7.77;1.30;;;3.90;99.90;;;;;;5008459;28;20176;-49
2021/01/13 11:30:38;;;;;;;8.37;2.30;;;4.00;99.90;;;;;;5015870;28;20917;-47
2021/01/13 11:33:06;;;;;;;10.47;2.00;;;4.00;99.90;;;;;;4992157;28;20207;-52
2021/01/13 11:35:34;;;;;;;6.90;1.87;;;4.10;99.90;;;;;;5014014;28;20203;-48
2021/01/13 11:38:33;;;;;;;6.30;1.20;;;4.10;99.90;;;;;;5018371;28;20184;-49
2021/01/13 11:41:17;;;;;;;4.63;1.73;;;4.10;99.90;;;;;;5020221;28;20179;-48
2021/01/13 11:43:43;;;;;;;8.00;1.40;;;4.20;99.90;;;;;;5020580;28;20254;-47
2021/01/13 11:46:16;;;;;;;8.10;1.43;;;4.30;99.90;;;;;;5018173;28;20192;-50
2021/01/13 11:49:09;;;;;;;8.20;1.57;;;4.30;99.90;;;;;;4976970;28;20310;-50
2021/01/13 11:51:39;;;;;;;6.17;1.57;;;4.30;99.90;;;;;;5012018;28;20172;-47
2021/01/13 11:54:05;;;;;;;10.30;1.60;;;4.30;99.90;;;;;;5012523;28;20188;-50
2021/01/13 11:56:31;;;;;;;8.50;1.90;;;4.40;99.90;;;;;;5015733;28;20199;-51
2021/01/13 11:58:57;;;;;;;9.90;1.40;;;4.50;99.90;;;;;;5017660;28;20214;-48
2021/01/13 12:01:24;;;;;;;12.73;1.33;;;4.50;99.90;;;;;;5014390;28;20191;-51
2021/01/13 12:04:04;;;;;;;6.43;1.60;;;4.50;99.90;;;;;;5018698;28;20212;-49
2021/01/13 12:06:30;;;;;;;9.00;1.50;;;4.50;99.90;;;;;;5008459;28;20273;-47
2021/01/13 12:08:56;;;;;;;8.23;2.50;;;4.50;99.90;;;;;;5021555;28;20214;-46
2021/01/13 12:11:23;;;;;;;5.93;1.30;;;4.50;99.90;;;;;;5015375;28;20259;-51
2021/01/13 12:13:49;;;;;;;7.47;1.40;;;4.50;99.90;;;;;;5019358;28;20215;-47
2021/01/13 12:16:19;;;;;;;6.93;1.50;;;4.50;99.90;;;;;;5018315;28;20719;-51
2021/01/13 12:18:50;;;;;;;5.73;1.40;;;4.50;99.90;;;;;;5007924;28;20600;-53
2021/01/13 12:21:18;;;;;;;4.20;1.00;;;4.50;99.90;;;;;;5000397;28;20201;-53
2021/01/13 12:23:48;;;;;;;5.80;1.43;;;4.40;99.90;;;;;;5016629;28;20205;-51
2021/01/13 12:26:22;;;;;;;6.33;1.33;;;4.40;99.90;;;;;;5013874;28;20575;-52
2021/01/13 12:28:52;;;;;;;9.03;1.50;;;4.40;99.90;;;;;;5015811;28;20184;-48
2021/01/13 12:31:20;;;;;;;12.73;1.97;;;4.40;99.90;;;;;;5014591;28;20183;-53
2021/01/13 12:33:54;;;;;;;11.80;1.90;;;4.40;99.90;;;;;;5019488;28;20220;-55
2021/01/13 12:36:25;;;;;;;4.33;1.40;;;4.40;99.90;;;;;;4996108;28;20255;-51
2021/01/13 12:38:52;;;;;;;7.57;1.67;;;4.30;99.90;;;;;;5004807;28;20290;-52
2021/01/13 12:41:26;;;;;;;8.30;1.43;;;4.40;99.90;;;;;;5005253;28;20196;-48
2021/01/13 12:43:53;;;;;;;8.73;1.47;;;4.40;99.90;;;;;;5004724;28;20302;-49
2021/01/13 12:46:33;;;;;;;5.57;1.30;;;4.50;99.90;;;;;;5009413;28;20719;-49
2021/01/13 12:48:59;;;;;;;7.93;1.23;;;4.50;99.90;;;;;;5002141;28;20195;-47
2021/01/13 12:51:25;;;;;;;6.90;1.57;;;4.50;99.90;;;;;;4999669;28;20192;-47
2021/01/13 12:53:55;;;;;;;8.70;1.10;;;4.30;99.90;;;;;;5019568;28;20205;-52
2021/01/13 12:56:29;;;;;;;4.20;1.13;;;4.00;99.90;;;;;;5013378;28;20196;-48
2021/01/13 12:58:57;;;;;;;3.20;0.70;;;3.60;99.90;;;;;;5004410;28;20317;-49
2021/01/13 13:01:23;;;;;;;1.57;0.40;;;3.20;99.90;;;;;;5017372;28;20203;-48
2021/01/13 13:03:49;;;;;;;1.57;0.37;;;2.70;99.90;;;;;;5007009;28;20246;-51
2021/01/13 13:06:28;;;;;;;2.03;0.53;;;2.50;99.90;;;;;;5001188;28;20204;-50
2021/01/13 13:08:55;;;;;;;1.90;0.50;;;2.30;99.90;;;;;;5007325;28;20223;-50
2021/01/13 13:11:21;;;;;;;1.43;0.53;;;2.20;99.90;;;;;;5011546;28;20199;-46
2021/01/13 13:13:47;;;;;;;2.77;0.50;;;2.10;99.90;;;;;;4999466;28;20192;-49
2021/01/13 13:16:13;;;;;;;1.40;0.30;;;1.90;99.90;;;;;;5014864;28;20294;-50
2021/01/13 13:18:39;;;;;;;0.43;0.30;;;1.90;99.90;;;;;;5017970;28;20219;-52